createdAt,value
2019-04-03T00:00:34.491Z,97810.95
2019-04-03T00:03:04.873Z,97815.95
2019-04-03T00:05:35.388Z,97800.91
2019-04-03T00:08:06.604Z,97805.29
2019-04-03T00:10:38.081Z,97806.02
2019-04-03T00:13:11.159Z,97805.19
2019-04-03T00:15:40.439Z,97806.28
2019-04-03T00:18:09.889Z,97804.41
2019-04-03T00:20:39.623Z,97807.02
2019-04-03T00:23:09.339Z,97806.11
2019-04-03T00:25:39.053Z,97802.56
2019-04-03T00:28:08.758Z,97802.69
2019-04-03T00:30:38.202Z,97802.11
2019-04-03T00:33:07.656Z,97802.84
2019-04-03T00:35:37.084Z,97799.33
2019-04-03T00:38:06.844Z,97795.05
2019-04-03T00:40:36.286Z,97796.02
2019-04-03T00:43:05.991Z,97795.44
2019-04-03T00:45:35.437Z,97792.13
2019-04-03T00:48:04.938Z,97790.83
2019-04-03T00:50:34.389Z,97787.17
2019-04-03T00:53:03.825Z,97786.47
2019-04-03T00:55:33.507Z,97779.52
2019-04-03T00:58:04.645Z,97780.48
2019-04-03T01:00:34.163Z,97777.42
2019-04-03T01:03:03.617Z,97777.42
2019-04-03T01:05:33.054Z,97782.97
2019-04-03T01:08:02.865Z,97779.45
2019-04-03T01:10:32.543Z,97781.69
2019-04-03T01:13:02.299Z,97780.52
2019-04-03T01:15:32.186Z,97786.69
2019-04-03T01:18:04.405Z,97781.61
2019-04-03T01:20:33.069Z,97780.78
2019-04-03T01:23:02.502Z,97782.22
2019-04-03T01:25:31.953Z,97780.08
2019-04-03T01:28:01.630Z,97782.81
2019-04-03T01:30:31.077Z,97774.79
2019-04-03T01:33:00.513Z,97770.64
2019-04-03T01:35:29.955Z,97770.64
2019-04-03T01:37:59.697Z,97770.52
2019-04-03T01:40:29.529Z,97765.17
2019-04-03T01:42:59.206Z,97765.90
2019-04-03T01:45:28.899Z,97769.00
2019-04-03T01:47:58.630Z,97772.91
2019-04-03T01:50:28.731Z,97769.26
2019-04-03T01:52:58.766Z,97768.30
2019-04-03T01:55:28.206Z,97766.03
2019-04-03T01:57:57.874Z,97760.48
2019-04-03T02:00:27.368Z,97759.56
2019-04-03T02:02:57.082Z,97755.03
2019-04-03T02:05:26.895Z,97764.27
2019-04-03T02:07:56.350Z,97758.36
2019-04-03T02:10:26.388Z,97757.41
2019-04-03T02:12:56.075Z,97758.27
2019-04-03T02:15:25.517Z,97762.39
2019-04-03T02:17:55.313Z,97758.17
2019-04-03T02:20:26.526Z,97760.16
2019-04-03T02:22:59.283Z,97757.81
2019-04-03T02:25:27.617Z,97756.17
2019-04-03T02:27:57.062Z,97752.28
2019-04-03T02:30:26.767Z,97755.97
2019-04-03T02:32:57.255Z,97754.55
2019-04-03T02:35:27.191Z,97753.13
2019-04-03T02:37:56.721Z,97755.52
2019-04-03T02:40:26.475Z,97754.22
2019-04-03T02:42:55.939Z,97758.50
2019-04-03T02:45:25.846Z,97755.77
2019-04-03T02:47:55.849Z,97757.28
2019-04-03T02:50:26.927Z,97760.97
2019-04-03T02:52:58.150Z,97760.27
2019-04-03T02:55:28.151Z,97771.16
2019-04-03T02:57:57.854Z,97765.73
2019-04-03T03:00:31.748Z,97765.61
2019-04-03T03:02:58.909Z,97766.22
2019-04-03T03:05:29.114Z,97765.03
2019-04-03T03:07:59.146Z,97772.46
2019-04-03T03:10:30.945Z,97772.44
2019-04-03T03:13:02.367Z,97775.50
2019-04-03T03:15:32.523Z,97772.31
2019-04-03T03:18:02.587Z,97774.66
2019-04-03T03:20:33.018Z,97779.81
2019-04-03T03:23:03.108Z,97777.34
2019-04-03T03:25:34.166Z,97779.12
2019-04-03T03:28:04.225Z,97773.32
2019-04-03T03:30:43.294Z,97772.23
2019-04-03T03:33:28.811Z,97770.70
2019-04-03T03:35:44.966Z,97764.66
2019-04-03T03:38:10.857Z,97772.56
2019-04-03T03:40:41.709Z,97766.16
2019-04-03T03:43:12.305Z,97770.06
2019-04-03T03:45:42.560Z,97767.65
2019-04-03T03:48:12.253Z,97773.27
2019-04-03T03:50:41.932Z,97760.06
2019-04-03T03:53:13.120Z,97762.40
2019-04-03T03:55:43.597Z,97764.16
2019-04-03T03:58:14.028Z,97765.19
2019-04-03T04:00:44.468Z,97764.36
2019-04-03T04:03:14.954Z,97761.30
2019-04-03T04:05:44.430Z,97762.52
2019-04-03T04:08:14.279Z,97751.04
2019-04-03T04:10:44.912Z,97751.58
2019-04-03T04:13:15.758Z,97753.30
2019-04-03T04:15:46.321Z,97750.20
2019-04-03T04:18:16.297Z,97752.57
2019-04-03T04:20:46.259Z,97748.00
2019-04-03T04:23:16.453Z,97751.27
2019-04-03T04:25:46.756Z,97750.54
2019-04-03T04:28:16.510Z,97749.35
2019-04-03T04:30:49.021Z,97744.36
2019-04-03T04:33:18.783Z,97747.45
2019-04-03T04:35:51.898Z,97743.78
2019-04-03T04:38:19.513Z,97738.08
2019-04-03T04:40:49.444Z,97746.98
2019-04-03T04:43:18.921Z,97740.62
2019-04-03T04:45:48.762Z,97735.84
2019-04-03T04:48:20.343Z,97731.45
2019-04-03T04:50:49.690Z,97726.98
2019-04-03T04:53:19.564Z,97725.84
2019-04-03T04:55:49.252Z,97720.55
2019-04-03T04:58:18.712Z,97721.17
2019-04-03T05:00:48.323Z,97723.76
2019-04-03T05:03:18.030Z,97720.78
2019-04-03T05:05:47.445Z,97721.96
2019-04-03T05:08:17.114Z,97719.28
2019-04-03T05:10:48.733Z,97719.50
2019-04-03T05:13:18.394Z,97721.36
2019-04-03T05:15:48.097Z,97717.77
2019-04-03T05:18:17.539Z,97715.67
2019-04-03T05:20:47.251Z,97714.14
2019-04-03T05:23:18.555Z,97714.36
2019-04-03T05:25:48.250Z,97711.88
2019-04-03T05:28:17.709Z,97704.98
2019-04-03T05:30:47.135Z,97708.47
2019-04-03T05:33:16.882Z,97709.04
2019-04-03T05:35:46.660Z,97708.69
2019-04-03T05:38:16.112Z,97706.26
2019-04-03T05:40:45.625Z,97705.98
2019-04-03T05:43:15.060Z,97708.25
2019-04-03T05:45:44.526Z,97709.92
2019-04-03T05:48:17.833Z,97704.98
2019-04-03T05:50:45.673Z,97716.18
2019-04-03T05:53:15.565Z,97706.66
2019-04-03T05:55:45.333Z,97707.84
2019-04-03T05:58:16.481Z,97702.77
2019-04-03T06:00:46.222Z,97700.69
2019-04-03T06:03:15.733Z,97706.70
2019-04-03T06:05:45.456Z,97716.63
2019-04-03T06:08:15.161Z,97719.33
2019-04-03T06:10:44.672Z,97715.33
2019-04-03T06:13:16.704Z,97709.70
2019-04-03T06:15:45.930Z,97704.52
2019-04-03T06:18:17.507Z,97695.12
2019-04-03T06:20:47.078Z,97701.80
2019-04-03T06:23:16.814Z,97695.05
2019-04-03T06:25:46.608Z,97692.85
2019-04-03T06:28:16.047Z,97689.34
2019-04-03T06:30:45.860Z,97689.58
2019-04-03T06:33:15.496Z,97681.15
2019-04-03T06:35:46.100Z,97679.28
2019-04-03T06:38:15.711Z,97672.38
2019-04-03T06:40:45.226Z,97669.19
2019-04-03T06:43:15.357Z,97673.69
2019-04-03T06:45:46.244Z,97669.83
2019-04-03T06:48:15.638Z,97658.77
2019-04-03T06:50:45.087Z,97656.64
2019-04-03T06:53:14.527Z,97651.45
2019-04-03T06:55:44.348Z,97648.05
2019-04-03T06:58:13.876Z,97647.77
2019-04-03T07:00:43.276Z,97647.16
2019-04-03T07:03:12.787Z,97642.09
2019-04-03T07:05:42.914Z,97641.77
2019-04-03T07:08:12.903Z,97634.71
2019-04-03T07:10:54.207Z,97636.35
2019-04-03T07:13:15.284Z,97635.05
2019-04-03T07:15:45.197Z,97637.87
2019-04-03T07:18:14.872Z,97638.97
2019-04-03T07:20:44.320Z,97638.63
2019-04-03T07:23:14.011Z,97641.33
2019-04-03T07:25:43.465Z,97639.08
2019-04-03T07:28:12.983Z,97636.02
2019-04-03T07:30:43.151Z,97646.86
2019-04-03T07:33:12.587Z,97639.80
2019-04-03T07:35:42.422Z,97634.05
2019-04-03T07:38:11.866Z,97634.88
2019-04-03T07:40:41.558Z,97636.08
2019-04-03T07:43:11.520Z,97632.20
2019-04-03T07:45:43.681Z,97630.42
2019-04-03T07:48:12.307Z,97630.70
2019-04-03T07:50:42.302Z,97632.45
2019-04-03T07:53:11.812Z,97627.50
2019-04-03T07:55:43.727Z,97630.57
2019-04-03T07:58:12.704Z,97619.97
2019-04-03T08:00:42.415Z,97617.72
2019-04-03T08:03:12.124Z,97607.92
2019-04-03T08:05:41.832Z,97617.14
2019-04-03T08:08:11.943Z,97614.77
2019-04-03T08:10:41.653Z,97614.52
2019-04-03T08:13:11.384Z,97617.13
2019-04-03T08:15:40.828Z,97618.09
2019-04-03T08:18:10.715Z,97616.33
2019-04-03T08:20:40.095Z,97626.10
2019-04-03T08:23:10.062Z,97623.16
2019-04-03T08:25:42.156Z,97627.28
2019-04-03T08:28:11.070Z,97622.30
2019-04-03T08:30:41.074Z,97624.76
2019-04-03T08:33:17.443Z,97624.04
2019-04-03T08:35:42.027Z,97629.44
2019-04-03T08:38:13.463Z,97624.23
2019-04-03T08:40:42.654Z,97631.56
2019-04-03T08:43:12.152Z,97638.40
2019-04-03T08:45:41.593Z,97637.83
2019-04-03T08:48:11.288Z,97641.27
2019-04-03T08:50:40.719Z,97642.23
2019-04-03T08:53:10.410Z,97640.81
2019-04-03T08:55:39.848Z,97647.56
2019-04-03T08:58:09.290Z,97650.05
2019-04-03T09:00:39.027Z,97646.73
2019-04-03T09:03:08.473Z,97641.31
2019-04-03T09:05:38.228Z,97640.95
2019-04-03T09:08:07.949Z,97638.94
2019-04-03T09:10:37.669Z,97641.91
2019-04-03T09:13:16.893Z,97638.72
2019-04-03T09:15:38.491Z,97637.05
2019-04-03T09:18:08.304Z,97640.36
2019-04-03T09:20:37.979Z,97629.03
2019-04-03T09:23:07.677Z,97632.47
2019-04-03T09:25:37.301Z,97633.19
2019-04-03T09:28:06.753Z,97630.22
2019-04-03T09:30:36.405Z,97631.39
2019-04-03T09:33:05.998Z,97620.52
2019-04-03T09:35:36.908Z,97611.52
2019-04-03T09:38:08.733Z,97610.78
2019-04-03T09:40:37.762Z,97609.94
2019-04-03T09:43:07.332Z,97601.09
2019-04-03T09:45:36.773Z,97596.81
2019-04-03T09:48:06.494Z,97594.53
2019-04-03T09:50:35.926Z,97587.09
2019-04-03T09:53:05.766Z,97587.88
2019-04-03T09:55:37.286Z,97582.97
2019-04-03T09:58:06.339Z,97569.37
2019-04-03T10:00:36.421Z,97574.20
2019-04-03T10:03:06.076Z,97575.35
2019-04-03T10:05:35.992Z,97561.04
2019-04-03T10:08:07.589Z,97551.86
2019-04-03T10:10:37.014Z,97550.11
2019-04-03T10:13:06.464Z,97550.96
2019-04-03T10:15:36.225Z,97544.48
2019-04-03T10:18:08.619Z,97547.79
2019-04-03T10:20:37.201Z,97545.17
2019-04-03T10:23:06.892Z,97537.08
2019-04-03T10:25:37.698Z,97534.30
2019-04-03T10:28:07.882Z,97526.52
2019-04-03T10:30:37.324Z,97532.84
2019-04-03T10:33:07.055Z,97523.71
2019-04-03T10:35:38.788Z,97524.68
2019-04-03T10:38:07.875Z,97516.17
2019-04-03T10:40:37.534Z,97513.09
2019-04-03T10:43:07.084Z,97502.27
2019-04-03T10:45:37.003Z,97508.72
2019-04-03T10:48:06.843Z,97499.84
2019-04-03T10:50:38.059Z,97496.03
2019-04-03T10:53:07.877Z,97490.98
2019-04-03T10:55:37.325Z,97483.95
2019-04-03T10:58:08.226Z,97475.02
2019-04-03T11:00:38.459Z,97467.67
2019-04-03T11:03:08.507Z,97473.24
2019-04-03T11:05:38.325Z,97465.64
2019-04-03T11:08:07.735Z,97465.61
2019-04-03T11:10:37.457Z,97456.58
2019-04-03T11:13:06.865Z,97450.70
2019-04-03T11:15:36.332Z,97446.94
2019-04-03T11:18:06.115Z,97431.54
2019-04-03T11:20:36.685Z,97429.88
2019-04-03T11:23:08.317Z,97425.74
2019-04-03T11:25:41.581Z,97415.44
2019-04-03T11:28:09.605Z,97415.69
2019-04-03T11:30:39.037Z,97410.08
2019-04-03T11:33:08.481Z,97408.41
2019-04-03T11:35:38.192Z,97407.88
2019-04-03T11:38:13.997Z,97395.44
2019-04-03T11:40:39.475Z,97386.89
2019-04-03T11:43:09.074Z,97381.26
2019-04-03T11:45:38.757Z,97379.33
2019-04-03T11:48:08.462Z,97372.75
2019-04-03T11:50:39.686Z,97368.37
2019-04-03T11:53:09.355Z,97366.97
2019-04-03T11:55:39.949Z,97369.52
2019-04-03T11:58:10.726Z,97369.73
2019-04-03T12:00:42.107Z,97364.90
2019-04-03T12:03:12.150Z,97356.98
2019-04-03T12:05:41.707Z,97356.10
2019-04-03T12:08:12.597Z,97338.58
2019-04-03T12:10:42.885Z,97338.30
2019-04-03T12:13:14.519Z,97331.55
2019-04-03T12:15:44.792Z,97332.44
2019-04-03T12:18:14.380Z,97335.42
2019-04-03T12:20:45.614Z,97327.84
2019-04-03T12:23:15.473Z,97310.59
2019-04-03T12:25:45.273Z,97309.69
2019-04-03T12:28:17.752Z,97314.52
2019-04-03T12:30:46.436Z,97313.42
2019-04-03T12:33:16.142Z,97311.11
2019-04-03T12:35:46.328Z,97308.86
2019-04-03T12:38:16.041Z,97301.97
2019-04-03T12:40:45.903Z,97296.80
2019-04-03T12:43:15.581Z,97296.66
2019-04-03T12:45:45.038Z,97295.78
2019-04-03T12:48:16.877Z,97297.66
2019-04-03T12:50:45.771Z,97295.27
2019-04-03T12:53:16.550Z,97295.22
2019-04-03T12:55:46.917Z,97290.45
2019-04-03T12:58:16.701Z,97277.77
2019-04-03T13:00:48.058Z,97275.00
2019-04-03T13:03:18.018Z,97267.27
2019-04-03T13:05:49.064Z,97277.29
2019-04-03T13:08:21.009Z,97269.64
2019-04-03T13:10:50.301Z,97263.31
2019-04-03T13:13:19.737Z,97260.59
2019-04-03T13:15:49.395Z,97264.69
2019-04-03T13:18:19.288Z,97262.13
2019-04-03T13:20:48.822Z,97263.34
2019-04-03T13:23:18.519Z,97257.37
2019-04-03T13:25:48.313Z,97253.23
2019-04-03T13:28:17.744Z,97248.25
2019-04-03T13:30:47.307Z,97235.37
2019-04-03T13:33:17.828Z,97227.63
2019-04-03T13:35:48.982Z,97225.13
2019-04-03T13:38:19.665Z,97222.38
2019-04-03T13:40:49.342Z,97223.14
2019-04-03T13:43:21.016Z,97222.89
2019-04-03T13:45:50.101Z,97220.86
2019-04-03T13:48:19.729Z,97229.50
2019-04-03T13:50:50.147Z,97220.88
2019-04-03T13:53:20.596Z,97223.56
2019-04-03T13:55:51.167Z,97228.08
2019-04-03T13:58:21.636Z,97220.73
2019-04-03T14:00:58.637Z,97205.05
2019-04-03T14:03:22.666Z,97193.86
2019-04-03T14:05:52.326Z,97201.02
2019-04-03T14:08:22.072Z,97204.48
2019-04-03T14:10:51.512Z,97196.83
2019-04-03T14:13:20.954Z,97201.06
2019-04-03T14:15:50.399Z,97192.44
2019-04-03T14:18:20.148Z,97193.69
2019-04-03T14:20:51.458Z,97178.05
2019-04-03T14:23:20.824Z,97171.56
2019-04-03T14:26:02.237Z,97171.37
2019-04-03T14:28:21.851Z,97173.28
2019-04-03T14:30:51.736Z,97164.30
2019-04-03T14:33:22.902Z,97170.94
2019-04-03T14:35:54.798Z,97167.23
2019-04-03T14:38:24.302Z,97180.39
2019-04-03T14:40:53.865Z,97184.84
2019-04-03T14:43:23.249Z,97179.74
2019-04-03T14:45:53.031Z,97177.89
2019-04-03T14:48:23.955Z,97171.72
2019-04-03T14:50:53.637Z,97173.17
2019-04-03T14:53:23.158Z,97172.39
2019-04-03T14:55:52.913Z,97178.92
2019-04-03T14:58:25.811Z,97175.43
2019-04-03T15:00:54.280Z,97175.75
2019-04-03T15:03:24.072Z,97174.30
2019-04-03T15:05:53.509Z,97176.20
2019-04-03T15:08:23.907Z,97179.52
2019-04-03T15:10:53.859Z,97177.59
2019-04-03T15:13:23.619Z,97162.52
2019-04-03T15:15:53.478Z,97162.23
2019-04-03T15:18:23.198Z,97178.38
2019-04-03T15:20:53.277Z,97179.20
2019-04-03T15:23:23.064Z,97179.55
2019-04-03T15:25:53.414Z,97193.27
2019-04-03T15:28:23.393Z,97214.51
2019-04-03T15:30:53.118Z,97239.88
2019-04-03T15:33:24.328Z,97211.00
2019-04-03T15:35:54.178Z,97219.12
2019-04-03T15:38:23.619Z,97214.89
2019-04-03T15:40:53.355Z,97221.61
2019-04-03T15:43:22.814Z,97229.59
2019-04-03T15:45:55.555Z,97240.45
2019-04-03T15:48:23.653Z,97254.33
2019-04-03T15:50:53.313Z,97279.16
2019-04-03T15:53:24.401Z,97294.89
2019-04-03T15:55:54.441Z,97302.37
2019-04-03T15:58:25.662Z,97313.80
2019-04-03T16:00:56.196Z,97351.45
2019-04-03T16:03:26.151Z,97390.56
2019-04-03T16:05:56.472Z,97414.36
2019-04-03T16:08:26.523Z,97419.09
2019-04-03T16:10:56.721Z,97406.84
2019-04-03T16:13:27.571Z,97418.36
2019-04-03T16:16:00.117Z,97503.47
2019-04-03T16:18:28.445Z,97466.77
2019-04-03T16:20:58.246Z,97345.86
2019-04-03T16:23:28.538Z,97312.27
2019-04-03T16:25:59.107Z,97423.24
2019-04-03T16:28:28.740Z,97462.21
2019-04-03T16:30:58.161Z,97433.70
2019-04-03T16:33:27.829Z,97456.06
2019-04-03T16:35:57.589Z,97456.27
2019-04-03T16:38:28.486Z,97483.95
2019-04-03T16:40:58.293Z,97495.05
2019-04-03T16:43:28.528Z,97490.80
2019-04-03T16:45:58.254Z,97487.86
2019-04-03T16:48:27.939Z,97472.80
2019-04-03T16:51:00.153Z,97474.19
2019-04-03T16:53:28.790Z,97484.80
2019-04-03T16:55:58.237Z,97494.81
2019-04-03T16:58:27.940Z,97493.72
2019-04-03T17:00:57.972Z,97499.86
2019-04-03T17:03:31.749Z,97507.30
2019-04-03T17:05:59.168Z,97495.16
2019-04-03T17:08:28.934Z,97496.34
2019-04-03T17:10:59.101Z,97510.91
2019-04-03T17:13:28.540Z,97494.31
2019-04-03T17:15:58.370Z,97490.20
2019-04-03T17:18:27.786Z,97490.55
2019-04-03T17:20:57.233Z,97499.47
2019-04-03T17:23:26.727Z,97502.05
2019-04-03T17:25:56.831Z,97500.22
2019-04-03T17:28:27.069Z,97502.98
2019-04-03T17:30:56.750Z,97511.80
2019-04-03T17:33:26.183Z,97501.42
2019-04-03T17:35:55.972Z,97480.72
2019-04-03T17:38:25.689Z,97481.91
2019-04-03T17:40:55.126Z,97482.19
2019-04-03T17:43:24.558Z,97475.91
2019-04-03T17:45:54.249Z,97465.45
2019-04-03T17:48:24.896Z,97480.06
2019-04-03T17:50:54.963Z,97495.14
2019-04-03T17:53:24.638Z,97500.00
2019-04-03T17:55:54.093Z,97503.08
2019-04-03T17:58:23.514Z,97491.52
2019-04-03T18:00:53.270Z,97493.08
2019-04-03T18:03:22.978Z,97488.39
2019-04-03T18:05:52.689Z,97493.84
2019-04-03T18:08:22.395Z,97500.17
2019-04-03T18:10:52.126Z,97498.70
2019-04-03T18:13:23.386Z,97496.59
2019-04-03T18:15:53.224Z,97505.78
2019-04-03T18:18:22.973Z,97521.14
2019-04-03T18:20:52.414Z,97513.79
2019-04-03T18:23:22.273Z,97511.37
2019-04-03T18:25:51.768Z,97501.81
2019-04-03T18:28:21.258Z,97495.02
2019-04-03T18:30:50.908Z,97512.48
2019-04-03T18:33:20.616Z,97517.09
2019-04-03T18:35:50.325Z,97514.98
2019-04-03T18:38:19.759Z,97512.67
2019-04-03T18:40:50.008Z,97519.27
2019-04-03T18:43:21.611Z,97517.56
2019-04-03T18:45:50.931Z,97523.34
2019-04-03T18:48:20.365Z,97526.57
2019-04-03T18:50:49.805Z,97525.91
2019-04-03T18:53:19.533Z,97528.70
2019-04-03T18:55:49.326Z,97530.69
2019-04-03T18:58:19.035Z,97533.98
2019-04-03T19:00:48.746Z,97545.38
2019-04-03T19:03:18.455Z,97541.77
2019-04-03T19:05:47.893Z,97540.62
2019-04-03T19:08:18.171Z,97539.71
2019-04-03T19:10:48.160Z,97544.69
2019-04-03T19:13:17.929Z,97545.41
2019-04-03T19:15:47.613Z,97556.42
2019-04-03T19:18:19.597Z,97547.83
2019-04-03T19:20:48.468Z,97546.98
2019-04-03T19:23:18.178Z,97548.45
2019-04-03T19:25:47.680Z,97537.34
2019-04-03T19:28:17.115Z,97533.39
2019-04-03T19:30:47.401Z,97535.78
2019-04-03T19:33:16.831Z,97543.80
2019-04-03T19:35:46.262Z,97522.55
2019-04-03T19:38:15.701Z,97532.55
2019-04-03T19:40:45.134Z,97529.61
2019-04-03T19:43:15.470Z,97528.53
2019-04-03T19:45:45.199Z,97525.23
2019-04-03T19:48:14.958Z,97530.64
2019-04-03T19:50:44.873Z,97537.08
2019-04-03T19:53:14.305Z,97533.88
2019-04-03T19:55:44.086Z,97535.61
2019-04-03T19:58:13.899Z,97498.17
2019-04-03T20:00:43.354Z,97515.19
2019-04-03T20:03:14.088Z,97512.89
2019-04-03T20:05:44.280Z,97522.27
2019-04-03T20:08:14.079Z,97500.56
2019-04-03T20:10:43.783Z,97502.78
2019-04-03T20:13:13.219Z,97500.30
2019-04-03T20:15:42.653Z,97491.36
2019-04-03T20:18:12.337Z,97494.12
2019-04-03T20:20:41.772Z,97483.70
2019-04-03T20:23:11.500Z,97488.97
2019-04-03T20:25:41.207Z,97485.12
2019-04-03T20:28:11.186Z,97478.48
2019-04-03T20:30:41.037Z,97478.66
2019-04-03T20:33:11.818Z,97479.75
2019-04-03T20:35:42.089Z,97485.10
2019-04-03T20:38:11.802Z,97486.37
2019-04-03T20:40:41.233Z,97480.70
2019-04-03T20:43:11.951Z,97476.10
2019-04-03T20:45:41.537Z,97482.00
2019-04-03T20:48:10.975Z,97479.97
2019-04-03T20:50:40.760Z,97466.98
2019-04-03T20:53:10.198Z,97462.11
2019-04-03T20:55:39.651Z,97466.72
2019-04-03T20:58:09.086Z,97474.46
2019-04-03T21:00:40.296Z,97475.25
2019-04-03T21:03:12.518Z,97481.34
2019-04-03T21:05:40.886Z,97484.36
2019-04-03T21:08:10.332Z,97487.03
2019-04-03T21:10:40.081Z,97483.81
2019-04-03T21:13:09.513Z,97483.81
2019-04-03T21:15:39.304Z,97482.81
2019-04-03T21:18:08.995Z,97475.07
2019-04-03T21:20:38.657Z,97479.92
2019-04-03T21:23:08.405Z,97482.61
2019-04-03T21:25:40.612Z,97489.69
2019-04-03T21:28:11.020Z,97491.17
2019-04-03T21:30:40.955Z,97484.83
2019-04-03T21:33:10.438Z,97500.44
2019-04-03T21:35:40.124Z,97497.70
2019-04-03T21:38:10.957Z,97496.66
2019-04-03T21:40:40.927Z,97497.03
2019-04-03T21:43:10.366Z,97500.45
2019-04-03T21:45:39.803Z,97497.12
2019-04-03T21:48:09.598Z,97494.18
2019-04-03T21:50:39.029Z,97494.18
2019-04-03T21:53:08.805Z,97502.84
2019-04-03T21:55:38.233Z,97494.91
2019-04-03T21:58:08.818Z,97494.38
2019-04-03T22:00:59.343Z,97495.38
2019-04-03T22:03:29.254Z,97502.47
2019-04-03T22:05:58.682Z,97496.59
2019-04-03T22:08:29.059Z,97505.31
2019-04-03T22:10:59.364Z,97506.79
2019-04-03T22:13:29.316Z,97499.14
2019-04-03T22:15:58.782Z,97501.81
2019-04-03T22:18:28.472Z,97506.72
2019-04-03T22:20:59.867Z,97505.31
2019-04-03T22:23:29.437Z,97497.80
2019-04-03T22:25:58.938Z,97495.66
2019-04-03T22:28:28.376Z,97481.70
2019-04-03T22:30:58.077Z,97479.75
2019-04-03T22:33:28.349Z,97481.38
2019-04-03T22:35:58.126Z,97473.47
2019-04-03T22:38:27.945Z,97478.55
2019-04-03T22:40:57.753Z,97485.61
2019-04-03T22:43:27.249Z,97487.63
2019-04-03T22:45:56.725Z,97491.86
2019-04-03T22:48:27.498Z,97482.98
2019-04-03T22:50:57.432Z,97483.43
2019-04-03T22:53:26.859Z,97486.34
2019-04-03T22:55:56.303Z,97488.59
2019-04-03T22:58:25.735Z,97484.64
2019-04-03T23:00:55.447Z,97475.98
2019-04-03T23:03:24.874Z,97474.06
2019-04-03T23:05:54.340Z,97473.05
2019-04-03T23:08:24.036Z,97469.07
2019-04-03T23:10:53.785Z,97482.67
2019-04-03T23:13:23.557Z,97465.75
2019-04-03T23:15:52.997Z,97464.95
2019-04-03T23:18:22.774Z,97468.09
2019-04-03T23:20:52.859Z,97457.31
2019-04-03T23:23:22.724Z,97445.26
2019-04-03T23:25:52.562Z,97434.70
2019-04-03T23:28:21.996Z,97431.91
2019-04-03T23:30:51.684Z,97424.92
2019-04-03T23:33:21.158Z,97437.05
2019-04-03T23:35:51.212Z,97426.56
2019-04-03T23:38:21.018Z,97418.38
2019-04-03T23:40:50.460Z,97415.70
2019-04-03T23:43:19.894Z,97408.38
2019-04-03T23:45:49.678Z,97395.59
2019-04-03T23:48:19.348Z,97389.41
2019-04-03T23:50:49.105Z,97389.24
2019-04-03T23:53:18.809Z,97389.80
2019-04-03T23:55:48.507Z,97398.25
2019-04-03T23:58:17.968Z,97391.27
